sensor_id;sensor_type;location;lat;lon;timestamp;P1;durP1;ratioP1;P2;durP2;ratioP2
13083;SDS011;6608;48.790;9.198;2023-03-21T00:00:14;139.40;;;60.33;;
13083;SDS011;6608;48.790;9.198;2023-03-21T00:02:40;137.87;;;60.20;;
13083;SDS011;6608;48.790;9.198;2023-03-21T00:05:07;134.37;;;57.83;;
13083;SDS011;6608;48.790;9.198;2023-03-21T00:07:33;133.67;;;59.60;;
13083;SDS011;6608;48.790;9.198;2023-03-21T00:10:00;134.20;;;59.87;;
13083;SDS011;6608;48.790;9.198;2023-03-21T00:12:26;138.00;;;60.73;;
13083;SDS011;6608;48.790;9.198;2023-03-21T00:14:57;140.90;;;59.63;;
13083;SDS011;6608;48.790;9.198;2023-03-21T00:17:28;133.30;;;59.53;;
13083;SDS011;6608;48.790;9.198;2023-03-21T00:19:56;135.83;;;59.50;;
13083;SDS011;6608;48.790;9.198;2023-03-21T00:22:23;135.70;;;59.90;;
13083;SDS011;6608;48.790;9.198;2023-03-21T00:24:49;135.27;;;59.30;;
13083;SDS011;6608;48.790;9.198;2023-03-21T00:27:16;133.13;;;59.93;;
13083;SDS011;6608;48.790;9.198;2023-03-21T00:29:44;135.70;;;60.47;;
13083;SDS011;6608;48.790;9.198;2023-03-21T00:32:11;136.83;;;60.07;;
13083;SDS011;6608;48.790;9.198;2023-03-21T00:34:38;134.73;;;59.83;;
13083;SDS011;6608;48.790;9.198;2023-03-21T00:37:04;136.23;;;60.97;;
13083;SDS011;6608;48.790;9.198;2023-03-21T00:39:33;134.00;;;59.50;;
13083;SDS011;6608;48.790;9.198;2023-03-21T00:41:59;135.50;;;57.60;;
13083;SDS011;6608;48.790;9.198;2023-03-21T00:44:25;132.10;;;58.17;;
13083;SDS011;6608;48.790;9.198;2023-03-21T00:46:52;132.30;;;57.93;;
13083;SDS011;6608;48.790;9.198;2023-03-21T00:49:20;131.80;;;58.27;;
13083;SDS011;6608;48.790;9.198;2023-03-21T00:51:46;132.13;;;57.80;;
13083;SDS011;6608;48.790;9.198;2023-03-21T00:54:15;132.87;;;57.80;;
13083;SDS011;6608;48.790;9.198;2023-03-21T00:56:42;135.93;;;58.97;;
13083;SDS011;6608;48.790;9.198;2023-03-21T00:59:08;133.83;;;59.37;;
13083;SDS011;6608;48.790;9.198;2023-03-21T01:01:35;136.00;;;60.60;;
13083;SDS011;6608;48.790;9.198;2023-03-21T01:04:01;135.67;;;60.23;;
13083;SDS011;6608;48.790;9.198;2023-03-21T01:06:31;133.83;;;59.43;;
13083;SDS011;6608;48.790;9.198;2023-03-21T01:08:57;132.57;;;59.73;;
13083;SDS011;6608;48.790;9.198;2023-03-21T01:11:25;138.90;;;59.80;;
13083;SDS011;6608;48.790;9.198;2023-03-21T01:13:52;136.17;;;59.93;;
13083;SDS011;6608;48.790;9.198;2023-03-21T01:16:18;136.23;;;60.33;;
13083;SDS011;6608;48.790;9.198;2023-03-21T01:18:45;133.77;;;59.70;;
13083;SDS011;6608;48.790;9.198;2023-03-21T01:21:12;133.50;;;60.27;;
13083;SDS011;6608;48.790;9.198;2023-03-21T01:23:41;134.13;;;59.27;;
13083;SDS011;6608;48.790;9.198;2023-03-21T01:26:08;135.10;;;60.30;;
13083;SDS011;6608;48.790;9.198;2023-03-21T01:28:35;133.93;;;60.17;;
13083;SDS011;6608;48.790;9.198;2023-03-21T01:31:02;136.13;;;61.03;;
13083;SDS011;6608;48.790;9.198;2023-03-21T01:33:29;134.60;;;59.83;;
13083;SDS011;6608;48.790;9.198;2023-03-21T01:35:56;136.43;;;60.50;;
13083;SDS011;6608;48.790;9.198;2023-03-21T01:38:22;132.13;;;58.43;;
13083;SDS011;6608;48.790;9.198;2023-03-21T01:40:50;134.63;;;60.57;;
13083;SDS011;6608;48.790;9.198;2023-03-21T01:43:21;135.77;;;59.87;;
13083;SDS011;6608;48.790;9.198;2023-03-21T01:48:33;137.03;;;60.47;;
13083;SDS011;6608;48.790;9.198;2023-03-21T01:51:01;136.73;;;59.83;;
13083;SDS011;6608;48.790;9.198;2023-03-21T01:53:28;135.60;;;60.50;;
13083;SDS011;6608;48.790;9.198;2023-03-21T01:55:58;133.47;;;59.63;;
13083;SDS011;6608;48.790;9.198;2023-03-21T01:58:26;135.43;;;59.77;;
13083;SDS011;6608;48.790;9.198;2023-03-21T02:00:54;135.83;;;60.23;;
13083;SDS011;6608;48.790;9.198;2023-03-21T02:03:21;136.50;;;60.40;;
13083;SDS011;6608;48.790;9.198;2023-03-21T02:05:49;133.77;;;60.30;;
13083;SDS011;6608;48.790;9.198;2023-03-21T02:08:16;133.10;;;59.30;;
13083;SDS011;6608;48.790;9.198;2023-03-21T02:10:42;135.10;;;60.53;;
13083;SDS011;6608;48.790;9.198;2023-03-21T02:13:12;134.27;;;59.90;;
13083;SDS011;6608;48.790;9.198;2023-03-21T02:15:39;134.20;;;59.83;;
13083;SDS011;6608;48.790;9.198;2023-03-21T02:18:08;133.67;;;59.77;;
13083;SDS011;6608;48.790;9.198;2023-03-21T02:23:29;131.80;;;58.90;;
13083;SDS011;6608;48.790;9.198;2023-03-21T02:28:41;134.10;;;59.87;;
13083;SDS011;6608;48.790;9.198;2023-03-21T02:31:17;134.77;;;60.10;;
13083;SDS011;6608;48.790;9.198;2023-03-21T02:33:56;133.60;;;59.60;;
13083;SDS011;6608;48.790;9.198;2023-03-21T02:36:32;134.60;;;59.90;;
13083;SDS011;6608;48.790;9.198;2023-03-21T02:39:04;133.77;;;59.87;;
13083;SDS011;6608;48.790;9.198;2023-03-21T02:41:35;132.37;;;59.27;;
13083;SDS011;6608;48.790;9.198;2023-03-21T02:44:07;131.67;;;59.80;;
13083;SDS011;6608;48.790;9.198;2023-03-21T02:46:39;132.83;;;59.30;;
13083;SDS011;6608;48.790;9.198;2023-03-21T02:49:08;131.73;;;59.50;;
13083;SDS011;6608;48.790;9.198;2023-03-21T02:51:37;132.70;;;59.83;;
13083;SDS011;6608;48.790;9.198;2023-03-21T02:54:06;133.70;;;58.60;;
13083;SDS011;6608;48.790;9.198;2023-03-21T02:56:34;134.03;;;59.20;;
13083;SDS011;6608;48.790;9.198;2023-03-21T02:59:02;132.50;;;58.83;;
13083;SDS011;6608;48.790;9.198;2023-03-21T03:01:29;133.70;;;58.57;;
13083;SDS011;6608;48.790;9.198;2023-03-21T03:03:56;131.83;;;59.20;;
13083;SDS011;6608;48.790;9.198;2023-03-21T03:06:23;135.60;;;59.70;;
13083;SDS011;6608;48.790;9.198;2023-03-21T03:09:03;134.43;;;59.30;;
13083;SDS011;6608;48.790;9.198;2023-03-21T03:11:35;134.00;;;58.50;;
13083;SDS011;6608;48.790;9.198;2023-03-21T03:14:05;130.70;;;58.70;;
13083;SDS011;6608;48.790;9.198;2023-03-21T03:16:37;129.83;;;58.30;;
13083;SDS011;6608;48.790;9.198;2023-03-21T03:19:06;130.83;;;58.83;;
13083;SDS011;6608;48.790;9.198;2023-03-21T03:21:36;133.07;;;58.77;;
13083;SDS011;6608;48.790;9.198;2023-03-21T03:24:07;133.13;;;59.63;;
13083;SDS011;6608;48.790;9.198;2023-03-21T03:26:37;132.07;;;58.60;;
13083;SDS011;6608;48.790;9.198;2023-03-21T03:29:05;134.53;;;58.93;;
13083;SDS011;6608;48.790;9.198;2023-03-21T03:31:32;130.83;;;58.83;;
13083;SDS011;6608;48.790;9.198;2023-03-21T03:34:02;131.07;;;58.63;;
13083;SDS011;6608;48.790;9.198;2023-03-21T03:36:31;129.90;;;57.20;;
13083;SDS011;6608;48.790;9.198;2023-03-21T03:38:59;131.30;;;58.87;;
13083;SDS011;6608;48.790;9.198;2023-03-21T03:41:28;132.00;;;59.30;;
13083;SDS011;6608;48.790;9.198;2023-03-21T03:43:57;131.23;;;58.27;;
13083;SDS011;6608;48.790;9.198;2023-03-21T03:46:28;131.93;;;58.93;;
13083;SDS011;6608;48.790;9.198;2023-03-21T03:48:56;130.60;;;58.23;;
13083;SDS011;6608;48.790;9.198;2023-03-21T03:51:24;131.43;;;58.83;;
13083;SDS011;6608;48.790;9.198;2023-03-21T03:53:52;128.47;;;57.40;;
13083;SDS011;6608;48.790;9.198;2023-03-21T03:56:20;129.83;;;58.40;;
13083;SDS011;6608;48.790;9.198;2023-03-21T03:58:47;132.63;;;59.50;;
13083;SDS011;6608;48.790;9.198;2023-03-21T04:01:15;130.33;;;58.67;;
13083;SDS011;6608;48.790;9.198;2023-03-21T04:03:43;133.47;;;60.10;;
13083;SDS011;6608;48.790;9.198;2023-03-21T04:06:10;131.17;;;58.47;;
13083;SDS011;6608;48.790;9.198;2023-03-21T04:08:37;132.77;;;59.43;;
13083;SDS011;6608;48.790;9.198;2023-03-21T04:11:04;137.10;;;58.53;;
13083;SDS011;6608;48.790;9.198;2023-03-21T04:13:31;131.07;;;58.50;;
13083;SDS011;6608;48.790;9.198;2023-03-21T04:15:58;132.03;;;58.13;;
13083;SDS011;6608;48.790;9.198;2023-03-21T04:18:26;130.90;;;58.50;;
13083;SDS011;6608;48.790;9.198;2023-03-21T04:20:52;134.83;;;58.03;;
13083;SDS011;6608;48.790;9.198;2023-03-21T04:23:19;133.30;;;58.73;;
13083;SDS011;6608;48.790;9.198;2023-03-21T04:25:45;129.00;;;57.87;;
13083;SDS011;6608;48.790;9.198;2023-03-21T04:28:12;134.13;;;59.27;;
13083;SDS011;6608;48.790;9.198;2023-03-21T04:30:38;129.53;;;58.90;;
13083;SDS011;6608;48.790;9.198;2023-03-21T04:33:05;130.57;;;58.70;;
13083;SDS011;6608;48.790;9.198;2023-03-21T04:35:33;130.63;;;58.03;;
13083;SDS011;6608;48.790;9.198;2023-03-21T04:38:00;133.33;;;58.57;;
13083;SDS011;6608;48.790;9.198;2023-03-21T04:40:26;131.83;;;56.80;;
13083;SDS011;6608;48.790;9.198;2023-03-21T04:42:53;130.17;;;59.33;;
13083;SDS011;6608;48.790;9.198;2023-03-21T04:45:19;132.47;;;58.63;;
13083;SDS011;6608;48.790;9.198;2023-03-21T04:47:46;129.43;;;58.60;;
13083;SDS011;6608;48.790;9.198;2023-03-21T04:50:12;135.07;;;58.17;;
13083;SDS011;6608;48.790;9.198;2023-03-21T04:52:41;131.00;;;59.00;;
13083;SDS011;6608;48.790;9.198;2023-03-21T04:55:07;132.13;;;58.70;;
13083;SDS011;6608;48.790;9.198;2023-03-21T04:57:35;132.07;;;58.57;;
13083;SDS011;6608;48.790;9.198;2023-03-21T05:00:04;130.10;;;57.93;;
13083;SDS011;6608;48.790;9.198;2023-03-21T05:02:33;129.10;;;58.43;;
13083;SDS011;6608;48.790;9.198;2023-03-21T05:04:59;130.03;;;58.83;;
13083;SDS011;6608;48.790;9.198;2023-03-21T05:07:26;131.73;;;58.83;;
13083;SDS011;6608;48.790;9.198;2023-03-21T05:09:54;131.10;;;58.73;;
13083;SDS011;6608;48.790;9.198;2023-03-21T05:12:20;133.10;;;58.80;;
13083;SDS011;6608;48.790;9.198;2023-03-21T05:14:47;129.63;;;58.47;;
13083;SDS011;6608;48.790;9.198;2023-03-21T05:17:13;129.03;;;58.10;;
13083;SDS011;6608;48.790;9.198;2023-03-21T05:19:48;131.23;;;58.60;;
13083;SDS011;6608;48.790;9.198;2023-03-21T05:22:17;129.53;;;58.20;;
13083;SDS011;6608;48.790;9.198;2023-03-21T05:24:44;132.40;;;58.53;;
13083;SDS011;6608;48.790;9.198;2023-03-21T05:27:15;131.97;;;58.40;;
13083;SDS011;6608;48.790;9.198;2023-03-21T05:29:59;130.77;;;59.50;;
13083;SDS011;6608;48.790;9.198;2023-03-21T05:32:25;130.43;;;59.50;;
13083;SDS011;6608;48.790;9.198;2023-03-21T05:34:52;132.43;;;58.73;;
13083;SDS011;6608;48.790;9.198;2023-03-21T05:37:18;127.03;;;56.53;;
13083;SDS011;6608;48.790;9.198;2023-03-21T05:39:44;129.13;;;58.73;;
13083;SDS011;6608;48.790;9.198;2023-03-21T05:42:11;129.20;;;57.90;;
13083;SDS011;6608;48.790;9.198;2023-03-21T05:44:39;128.73;;;58.13;;
13083;SDS011;6608;48.790;9.198;2023-03-21T05:47:05;133.27;;;58.90;;
13083;SDS011;6608;48.790;9.198;2023-03-21T05:49:32;131.93;;;59.83;;
13083;SDS011;6608;48.790;9.198;2023-03-21T05:51:59;131.10;;;59.30;;
13083;SDS011;6608;48.790;9.198;2023-03-21T05:54:25;135.07;;;59.43;;
13083;SDS011;6608;48.790;9.198;2023-03-21T05:56:52;131.73;;;59.70;;
13083;SDS011;6608;48.790;9.198;2023-03-21T05:59:18;132.30;;;59.50;;
13083;SDS011;6608;48.790;9.198;2023-03-21T06:01:46;133.60;;;59.33;;
13083;SDS011;6608;48.790;9.198;2023-03-21T06:04:13;132.33;;;59.03;;
13083;SDS011;6608;48.790;9.198;2023-03-21T06:06:39;133.10;;;59.47;;
13083;SDS011;6608;48.790;9.198;2023-03-21T06:09:06;134.10;;;58.93;;
13083;SDS011;6608;48.790;9.198;2023-03-21T06:11:33;133.90;;;59.27;;
13083;SDS011;6608;48.790;9.198;2023-03-21T06:14:01;133.07;;;59.07;;
13083;SDS011;6608;48.790;9.198;2023-03-21T06:16:27;134.00;;;58.07;;
13083;SDS011;6608;48.790;9.198;2023-03-21T06:18:55;132.07;;;58.23;;
13083;SDS011;6608;48.790;9.198;2023-03-21T06:21:22;129.03;;;57.67;;
13083;SDS011;6608;48.790;9.198;2023-03-21T06:23:48;135.67;;;59.47;;
13083;SDS011;6608;48.790;9.198;2023-03-21T06:26:15;132.57;;;58.23;;
13083;SDS011;6608;48.790;9.198;2023-03-21T06:28:43;132.57;;;61.37;;
13083;SDS011;6608;48.790;9.198;2023-03-21T06:31:10;132.00;;;58.20;;
13083;SDS011;6608;48.790;9.198;2023-03-21T06:33:37;135.53;;;59.47;;
13083;SDS011;6608;48.790;9.198;2023-03-21T06:36:05;130.93;;;59.23;;
13083;SDS011;6608;48.790;9.198;2023-03-21T06:38:32;132.07;;;59.37;;
13083;SDS011;6608;48.790;9.198;2023-03-21T06:41:01;132.80;;;59.67;;
13083;SDS011;6608;48.790;9.198;2023-03-21T06:43:29;134.50;;;60.10;;
13083;SDS011;6608;48.790;9.198;2023-03-21T06:45:55;133.93;;;58.63;;
13083;SDS011;6608;48.790;9.198;2023-03-21T06:48:21;131.53;;;59.20;;
13083;SDS011;6608;48.790;9.198;2023-03-21T06:50:48;131.50;;;58.27;;
13083;SDS011;6608;48.790;9.198;2023-03-21T06:53:16;130.67;;;58.50;;
13083;SDS011;6608;48.790;9.198;2023-03-21T06:55:47;133.43;;;59.07;;
13083;SDS011;6608;48.790;9.198;2023-03-21T06:58:13;130.97;;;58.30;;
13083;SDS011;6608;48.790;9.198;2023-03-21T07:00:40;130.03;;;58.43;;
13083;SDS011;6608;48.790;9.198;2023-03-21T07:03:06;132.03;;;59.10;;
13083;SDS011;6608;48.790;9.198;2023-03-21T07:05:33;134.30;;;61.03;;
13083;SDS011;6608;48.790;9.198;2023-03-21T07:08:00;138.00;;;60.60;;
13083;SDS011;6608;48.790;9.198;2023-03-21T07:10:28;140.80;;;62.87;;
13083;SDS011;6608;48.790;9.198;2023-03-21T07:12:54;134.93;;;61.20;;
13083;SDS011;6608;48.790;9.198;2023-03-21T07:15:20;136.47;;;60.80;;
13083;SDS011;6608;48.790;9.198;2023-03-21T07:17:47;140.57;;;62.10;;
13083;SDS011;6608;48.790;9.198;2023-03-21T07:20:13;141.80;;;62.30;;
13083;SDS011;6608;48.790;9.198;2023-03-21T07:22:40;145.97;;;63.20;;
13083;SDS011;6608;48.790;9.198;2023-03-21T07:25:06;147.90;;;63.77;;
13083;SDS011;6608;48.790;9.198;2023-03-21T07:27:35;149.07;;;63.07;;
13083;SDS011;6608;48.790;9.198;2023-03-21T07:30:01;150.27;;;64.17;;
13083;SDS011;6608;48.790;9.198;2023-03-21T07:32:30;149.80;;;64.10;;
13083;SDS011;6608;48.790;9.198;2023-03-21T07:34:57;146.70;;;62.30;;
13083;SDS011;6608;48.790;9.198;2023-03-21T07:37:24;149.23;;;65.03;;
13083;SDS011;6608;48.790;9.198;2023-03-21T07:39:50;147.73;;;62.20;;
13083;SDS011;6608;48.790;9.198;2023-03-21T07:42:17;145.63;;;62.70;;
13083;SDS011;6608;48.790;9.198;2023-03-21T07:44:46;146.87;;;62.63;;
13083;SDS011;6608;48.790;9.198;2023-03-21T07:47:12;148.93;;;64.00;;
13083;SDS011;6608;48.790;9.198;2023-03-21T07:49:39;147.60;;;63.27;;
13083;SDS011;6608;48.790;9.198;2023-03-21T07:52:05;150.33;;;64.17;;
13083;SDS011;6608;48.790;9.198;2023-03-21T07:54:32;155.27;;;67.57;;
13083;SDS011;6608;48.790;9.198;2023-03-21T07:56:59;153.60;;;65.97;;
13083;SDS011;6608;48.790;9.198;2023-03-21T07:59:25;169.07;;;70.27;;
13083;SDS011;6608;48.790;9.198;2023-03-21T08:01:53;160.77;;;66.43;;
13083;SDS011;6608;48.790;9.198;2023-03-21T08:04:19;171.77;;;68.77;;
13083;SDS011;6608;48.790;9.198;2023-03-21T08:06:46;169.03;;;67.67;;
13083;SDS011;6608;48.790;9.198;2023-03-21T08:09:13;160.03;;;68.37;;
13083;SDS011;6608;48.790;9.198;2023-03-21T08:11:39;160.67;;;69.03;;
13083;SDS011;6608;48.790;9.198;2023-03-21T08:14:06;166.50;;;69.33;;
13083;SDS011;6608;48.790;9.198;2023-03-21T08:16:35;165.97;;;70.20;;
13083;SDS011;6608;48.790;9.198;2023-03-21T08:19:03;163.40;;;68.97;;
13083;SDS011;6608;48.790;9.198;2023-03-21T08:21:29;166.57;;;69.10;;
13083;SDS011;6608;48.790;9.198;2023-03-21T08:23:56;172.53;;;70.33;;
13083;SDS011;6608;48.790;9.198;2023-03-21T08:26:22;174.10;;;71.80;;
13083;SDS011;6608;48.790;9.198;2023-03-21T08:28:49;172.30;;;71.37;;
13083;SDS011;6608;48.790;9.198;2023-03-21T08:31:16;170.40;;;70.43;;
13083;SDS011;6608;48.790;9.198;2023-03-21T08:33:44;169.93;;;70.93;;
13083;SDS011;6608;48.790;9.198;2023-03-21T08:36:12;169.27;;;69.77;;
13083;SDS011;6608;48.790;9.198;2023-03-21T08:38:39;168.63;;;70.33;;
13083;SDS011;6608;48.790;9.198;2023-03-21T08:41:06;165.57;;;68.47;;
13083;SDS011;6608;48.790;9.198;2023-03-21T08:43:32;173.70;;;68.93;;
13083;SDS011;6608;48.790;9.198;2023-03-21T08:45:58;173.33;;;71.20;;
13083;SDS011;6608;48.790;9.198;2023-03-21T08:48:28;166.93;;;69.00;;
13083;SDS011;6608;48.790;9.198;2023-03-21T08:50:54;166.93;;;69.23;;
13083;SDS011;6608;48.790;9.198;2023-03-21T08:53:22;166.30;;;68.70;;
13083;SDS011;6608;48.790;9.198;2023-03-21T08:55:48;169.93;;;68.90;;
13083;SDS011;6608;48.790;9.198;2023-03-21T08:58:15;167.37;;;68.03;;
13083;SDS011;6608;48.790;9.198;2023-03-21T09:00:42;168.73;;;68.87;;
13083;SDS011;6608;48.790;9.198;2023-03-21T09:03:08;168.30;;;69.97;;
13083;SDS011;6608;48.790;9.198;2023-03-21T09:05:35;175.27;;;74.20;;
13083;SDS011;6608;48.790;9.198;2023-03-21T09:08:01;167.83;;;68.93;;
13083;SDS011;6608;48.790;9.198;2023-03-21T09:10:29;170.73;;;69.57;;
13083;SDS011;6608;48.790;9.198;2023-03-21T09:12:56;166.67;;;67.93;;
13083;SDS011;6608;48.790;9.198;2023-03-21T09:15:26;170.80;;;70.20;;
13083;SDS011;6608;48.790;9.198;2023-03-21T09:17:53;168.60;;;69.10;;
13083;SDS011;6608;48.790;9.198;2023-03-21T09:20:23;172.10;;;69.50;;
13083;SDS011;6608;48.790;9.198;2023-03-21T09:22:54;174.87;;;71.40;;
13083;SDS011;6608;48.790;9.198;2023-03-21T09:25:22;168.33;;;69.20;;
13083;SDS011;6608;48.790;9.198;2023-03-21T09:27:50;166.50;;;68.83;;
13083;SDS011;6608;48.790;9.198;2023-03-21T09:30:19;169.03;;;68.73;;
13083;SDS011;6608;48.790;9.198;2023-03-21T09:32:45;167.50;;;69.23;;
13083;SDS011;6608;48.790;9.198;2023-03-21T09:35:12;167.73;;;68.60;;
13083;SDS011;6608;48.790;9.198;2023-03-21T09:37:40;168.20;;;67.27;;
13083;SDS011;6608;48.790;9.198;2023-03-21T09:40:08;169.07;;;68.80;;
13083;SDS011;6608;48.790;9.198;2023-03-21T09:42:36;165.80;;;67.70;;
13083;SDS011;6608;48.790;9.198;2023-03-21T09:45:09;162.97;;;66.13;;
13083;SDS011;6608;48.790;9.198;2023-03-21T09:47:38;173.70;;;73.18;;
13083;SDS011;6608;48.790;9.198;2023-03-21T09:50:11;168.30;;;69.53;;
13083;SDS011;6608;48.790;9.198;2023-03-21T09:52:41;165.80;;;67.27;;
13083;SDS011;6608;48.790;9.198;2023-03-21T09:55:12;167.33;;;69.43;;
13083;SDS011;6608;48.790;9.198;2023-03-21T09:57:44;169.33;;;69.40;;
13083;SDS011;6608;48.790;9.198;2023-03-21T10:00:15;170.43;;;70.93;;
13083;SDS011;6608;48.790;9.198;2023-03-21T10:02:44;167.20;;;68.43;;
13083;SDS011;6608;48.790;9.198;2023-03-21T10:05:16;166.90;;;68.23;;
13083;SDS011;6608;48.790;9.198;2023-03-21T10:07:44;166.17;;;67.93;;
13083;SDS011;6608;48.790;9.198;2023-03-21T10:10:13;166.13;;;68.23;;
13083;SDS011;6608;48.790;9.198;2023-03-21T10:12:41;165.87;;;68.03;;
13083;SDS011;6608;48.790;9.198;2023-03-21T10:15:09;164.37;;;66.33;;
13083;SDS011;6608;48.790;9.198;2023-03-21T10:17:42;166.20;;;67.03;;
13083;SDS011;6608;48.790;9.198;2023-03-21T10:20:11;165.47;;;67.03;;
13083;SDS011;6608;48.790;9.198;2023-03-21T10:22:39;165.87;;;67.07;;
13083;SDS011;6608;48.790;9.198;2023-03-21T10:25:06;164.30;;;67.50;;
13083;SDS011;6608;48.790;9.198;2023-03-21T10:27:33;168.17;;;70.40;;
13083;SDS011;6608;48.790;9.198;2023-03-21T10:30:01;166.30;;;68.43;;
13083;SDS011;6608;48.790;9.198;2023-03-21T10:32:30;169.33;;;70.57;;
13083;SDS011;6608;48.790;9.198;2023-03-21T10:34:57;170.50;;;71.00;;
13083;SDS011;6608;48.790;9.198;2023-03-21T10:37:25;169.93;;;68.03;;
13083;SDS011;6608;48.790;9.198;2023-03-21T10:39:52;171.77;;;69.67;;
13083;SDS011;6608;48.790;9.198;2023-03-21T10:42:20;170.10;;;69.03;;
13083;SDS011;6608;48.790;9.198;2023-03-21T10:44:49;168.73;;;69.43;;
13083;SDS011;6608;48.790;9.198;2023-03-21T10:47:18;169.87;;;68.47;;
13083;SDS011;6608;48.790;9.198;2023-03-21T10:49:45;172.73;;;69.60;;
13083;SDS011;6608;48.790;9.198;2023-03-21T10:52:14;173.37;;;72.07;;
13083;SDS011;6608;48.790;9.198;2023-03-21T10:54:42;171.40;;;70.27;;
13083;SDS011;6608;48.790;9.198;2023-03-21T10:57:14;167.10;;;68.50;;
13083;SDS011;6608;48.790;9.198;2023-03-21T10:59:42;169.63;;;70.57;;
13083;SDS011;6608;48.790;9.198;2023-03-21T11:02:13;170.40;;;69.17;;
13083;SDS011;6608;48.790;9.198;2023-03-21T11:04:41;168.57;;;69.10;;
13083;SDS011;6608;48.790;9.198;2023-03-21T11:07:08;166.83;;;69.47;;
13083;SDS011;6608;48.790;9.198;2023-03-21T11:09:43;168.43;;;70.07;;
13083;SDS011;6608;48.790;9.198;2023-03-21T11:12:10;170.47;;;69.13;;
13083;SDS011;6608;48.790;9.198;2023-03-21T11:14:38;169.57;;;70.43;;
13083;SDS011;6608;48.790;9.198;2023-03-21T11:17:21;170.73;;;68.47;;
13083;SDS011;6608;48.790;9.198;2023-03-21T11:19:48;167.33;;;68.73;;
13083;SDS011;6608;48.790;9.198;2023-03-21T11:22:15;166.70;;;68.00;;
13083;SDS011;6608;48.790;9.198;2023-03-21T11:24:44;166.60;;;67.30;;
13083;SDS011;6608;48.790;9.198;2023-03-21T11:27:13;166.30;;;68.77;;
13083;SDS011;6608;48.790;9.198;2023-03-21T11:29:43;175.57;;;71.03;;
13083;SDS011;6608;48.790;9.198;2023-03-21T11:32:11;170.07;;;69.20;;
13083;SDS011;6608;48.790;9.198;2023-03-21T11:34:40;169.33;;;68.87;;
13083;SDS011;6608;48.790;9.198;2023-03-21T11:37:16;168.87;;;68.57;;
13083;SDS011;6608;48.790;9.198;2023-03-21T11:39:44;187.13;;;89.67;;
13083;SDS011;6608;48.790;9.198;2023-03-21T11:42:24;183.00;;;77.90;;
13083;SDS011;6608;48.790;9.198;2023-03-21T11:44:56;168.90;;;67.30;;
13083;SDS011;6608;48.790;9.198;2023-03-21T11:47:23;165.53;;;67.80;;
13083;SDS011;6608;48.790;9.198;2023-03-21T11:49:49;166.83;;;66.70;;
13083;SDS011;6608;48.790;9.198;2023-03-21T11:52:18;164.17;;;66.53;;
13083;SDS011;6608;48.790;9.198;2023-03-21T11:54:53;161.80;;;65.73;;
13083;SDS011;6608;48.790;9.198;2023-03-21T11:57:24;164.07;;;66.80;;
13083;SDS011;6608;48.790;9.198;2023-03-21T11:59:54;164.10;;;66.30;;
13083;SDS011;6608;48.790;9.198;2023-03-21T12:02:33;164.77;;;67.57;;
13083;SDS011;6608;48.790;9.198;2023-03-21T12:05:02;164.47;;;67.10;;
13083;SDS011;6608;48.790;9.198;2023-03-21T12:07:34;164.67;;;68.40;;
13083;SDS011;6608;48.790;9.198;2023-03-21T12:10:09;163.33;;;66.97;;
13083;SDS011;6608;48.790;9.198;2023-03-21T12:12:40;164.07;;;66.77;;
13083;SDS011;6608;48.790;9.198;2023-03-21T12:15:09;165.07;;;67.20;;
13083;SDS011;6608;48.790;9.198;2023-03-21T12:17:39;163.53;;;67.37;;
13083;SDS011;6608;48.790;9.198;2023-03-21T12:20:13;168.40;;;67.90;;
13083;SDS011;6608;48.790;9.198;2023-03-21T12:22:44;164.67;;;66.77;;
13083;SDS011;6608;48.790;9.198;2023-03-21T12:25:20;163.47;;;66.53;;
13083;SDS011;6608;48.790;9.198;2023-03-21T12:27:52;163.53;;;67.83;;
13083;SDS011;6608;48.790;9.198;2023-03-21T12:30:27;166.70;;;67.83;;
13083;SDS011;6608;48.790;9.198;2023-03-21T12:33:01;161.90;;;66.27;;
13083;SDS011;6608;48.790;9.198;2023-03-21T12:35:35;164.17;;;66.83;;
13083;SDS011;6608;48.790;9.198;2023-03-21T12:38:10;167.70;;;69.33;;
13083;SDS011;6608;48.790;9.198;2023-03-21T12:40:46;167.67;;;68.17;;
13083;SDS011;6608;48.790;9.198;2023-03-21T12:43:22;168.53;;;69.43;;
13083;SDS011;6608;48.790;9.198;2023-03-21T12:45:52;161.40;;;66.67;;
13083;SDS011;6608;48.790;9.198;2023-03-21T12:48:21;167.87;;;71.57;;
13083;SDS011;6608;48.790;9.198;2023-03-21T12:50:50;165.33;;;68.97;;
13083;SDS011;6608;48.790;9.198;2023-03-21T12:53:30;165.37;;;68.53;;
13083;SDS011;6608;48.790;9.198;2023-03-21T12:56:02;167.03;;;67.50;;
13083;SDS011;6608;48.790;9.198;2023-03-21T12:58:30;163.80;;;65.17;;
13083;SDS011;6608;48.790;9.198;2023-03-21T13:00:59;161.77;;;65.93;;
13083;SDS011;6608;48.790;9.198;2023-03-21T13:03:28;161.33;;;66.00;;
13083;SDS011;6608;48.790;9.198;2023-03-21T13:05:56;164.73;;;67.53;;
13083;SDS011;6608;48.790;9.198;2023-03-21T13:08:24;164.17;;;68.83;;
13083;SDS011;6608;48.790;9.198;2023-03-21T13:10:52;162.77;;;67.63;;
13083;SDS011;6608;48.790;9.198;2023-03-21T13:13:24;165.03;;;68.27;;
13083;SDS011;6608;48.790;9.198;2023-03-21T13:15:54;165.37;;;68.20;;
13083;SDS011;6608;48.790;9.198;2023-03-21T13:18:25;166.90;;;69.17;;
13083;SDS011;6608;48.790;9.198;2023-03-21T13:20:55;166.83;;;66.70;;
13083;SDS011;6608;48.790;9.198;2023-03-21T13:23:22;166.77;;;68.73;;
13083;SDS011;6608;48.790;9.198;2023-03-21T13:25:49;167.50;;;67.57;;
13083;SDS011;6608;48.790;9.198;2023-03-21T13:28:18;172.20;;;73.27;;
13083;SDS011;6608;48.790;9.198;2023-03-21T13:30:46;164.17;;;67.07;;
13083;SDS011;6608;48.790;9.198;2023-03-21T13:33:14;165.30;;;67.30;;
13083;SDS011;6608;48.790;9.198;2023-03-21T13:35:42;165.30;;;67.30;;
13083;SDS011;6608;48.790;9.198;2023-03-21T13:38:10;166.30;;;68.27;;
13083;SDS011;6608;48.790;9.198;2023-03-21T13:40:39;164.50;;;67.00;;
13083;SDS011;6608;48.790;9.198;2023-03-21T13:43:24;174.83;;;69.90;;
13083;SDS011;6608;48.790;9.198;2023-03-21T13:45:56;167.07;;;67.63;;
13083;SDS011;6608;48.790;9.198;2023-03-21T13:48:30;171.70;;;67.87;;
13083;SDS011;6608;48.790;9.198;2023-03-21T13:50:59;180.67;;;67.40;;
13083;SDS011;6608;48.790;9.198;2023-03-21T13:53:29;182.20;;;68.53;;
13083;SDS011;6608;48.790;9.198;2023-03-21T13:55:57;171.27;;;68.67;;
13083;SDS011;6608;48.790;9.198;2023-03-21T13:58:31;173.67;;;71.07;;
13083;SDS011;6608;48.790;9.198;2023-03-21T14:01:08;174.30;;;70.77;;
13083;SDS011;6608;48.790;9.198;2023-03-21T14:03:37;170.73;;;67.77;;
13083;SDS011;6608;48.790;9.198;2023-03-21T14:06:04;167.50;;;66.10;;
13083;SDS011;6608;48.790;9.198;2023-03-21T14:08:30;173.00;;;70.83;;
13083;SDS011;6608;48.790;9.198;2023-03-21T14:11:00;175.20;;;76.60;;
13083;SDS011;6608;48.790;9.198;2023-03-21T14:13:28;164.23;;;66.43;;
13083;SDS011;6608;48.790;9.198;2023-03-21T14:15:57;164.83;;;66.73;;
13083;SDS011;6608;48.790;9.198;2023-03-21T14:18:26;166.40;;;67.70;;
13083;SDS011;6608;48.790;9.198;2023-03-21T14:20:53;172.00;;;69.23;;
13083;SDS011;6608;48.790;9.198;2023-03-21T14:23:20;165.23;;;66.00;;
13083;SDS011;6608;48.790;9.198;2023-03-21T14:25:47;166.60;;;67.53;;
13083;SDS011;6608;48.790;9.198;2023-03-21T14:28:14;163.77;;;67.23;;
13083;SDS011;6608;48.790;9.198;2023-03-21T14:30:42;186.70;;;81.53;;
13083;SDS011;6608;48.790;9.198;2023-03-21T14:33:12;164.20;;;66.60;;
13083;SDS011;6608;48.790;9.198;2023-03-21T14:35:42;163.07;;;66.77;;